Time;durP1;ratioP1;P1;durP2;ratioP2;P2;SDS_P1;SDS_P2;PMS_P1;PMS_P2;Temp;Humidity;BMP_temperature;BMP_pressure;BME280_temperature;BME280_humidity;BME280_pressure;Samples;Min_cycle;Max_cycle;Signal;HPM_P1;HPM_P2
2022/08/12 00:44:47;;;;;;;;;;;23.90;78.00;;;;;;5093804;28;19912;-63
2022/08/12 00:47:13;;;;;;;;;;;23.80;78.00;;;;;;5093845;28;20258;-63
2022/08/12 00:49:39;;;;;;;;;;;23.80;78.00;;;;;;5095197;28;20267;-63
2022/08/12 00:52:06;;;;;;;;;;;23.80;77.90;;;;;;5097655;28;19948;-63
2022/08/12 00:54:35;;;;;;;;;;;23.80;78.10;;;;;;5097293;28;19990;-63
2022/08/12 00:57:03;;;;;;;;;;;23.80;78.00;;;;;;5097264;28;19908;-63
2022/08/12 00:59:29;;;;;;;;;;;23.80;78.00;;;;;;5079377;28;20251;-63
2022/08/12 01:01:55;;;;;;;;;;;23.80;78.00;;;;;;5097251;28;19927;-63
2022/08/12 01:12:37;;;;;;;;;;;23.80;78.10;;;;;;5097400;28;19978;-63
2022/08/12 01:15:03;;;;;;;;;;;23.80;78.00;;;;;;5096896;28;19908;-63
2022/08/12 01:17:29;;;;;;;;;;;23.80;78.00;;;;;;5079051;28;19908;-63
2022/08/12 01:19:55;;;;;;;;;;;23.80;78.00;;;;;;5097151;28;20001;-63
2022/08/12 01:22:24;;;;;;;;;;;23.80;78.00;;;;;;5096831;28;19908;-63
2022/08/12 01:24:59;;;;;;;;;;;23.80;78.00;;;;;;5097135;28;19953;-63
2022/08/12 01:27:26;;;;;;;;;;;23.80;78.00;;;;;;5078840;28;19954;-63
2022/08/12 01:29:52;;;;;;;;;;;23.80;78.10;;;;;;5097100;28;19912;-63
2022/08/12 01:32:19;;;;;;;;;;;23.80;78.00;;;;;;5096677;28;20405;-63
2022/08/12 01:34:51;;;;;;;;;;;23.80;78.00;;;;;;5096846;28;20377;-63
2022/08/12 01:37:19;;;;;;;;;;;23.80;78.00;;;;;;5096868;28;19919;-63
2022/08/12 01:39:49;;;;;;;;;;;23.80;78.00;;;;;;5096399;28;20059;-63
2022/08/12 01:42:18;;;;;;;;;;;23.80;77.90;;;;;;5096758;28;19931;-63
2022/08/12 01:44:44;;;;;;;;;;;23.70;77.90;;;;;;5096376;28;20004;-63
2022/08/12 01:47:22;;;;;;;;;;;23.70;77.90;;;;;;5096884;28;19908;-63
2022/08/12 01:50:06;;;;;;;;;;;23.70;78.00;;;;;;5096730;28;19935;-63
2022/08/12 01:52:37;;;;;;;;;;;23.70;78.10;;;;;;5096120;28;20374;-63
2022/08/12 01:55:05;;;;;;;;;;;23.70;77.80;;;;;;5096110;28;19940;-63
2022/08/12 01:57:40;;;;;;;;;;;23.70;77.90;;;;;;5096410;28;19987;-63
2022/08/12 02:00:11;;;;;;;;;;;23.70;78.00;;;;;;5096205;28;20011;-63
2022/08/12 02:02:45;;;;;;;;;;;23.70;78.10;;;;;;5096318;28;19927;-63
2022/08/12 02:11:17;;;;;;;;;;;23.70;77.90;;;;;;5095886;28;19961;-63
2022/08/12 02:13:49;;;;;;;;;;;23.70;78.00;;;;;;5096115;28;19912;-63
2022/08/12 02:16:35;;;;;;;;;;;23.70;78.10;;;;;;5096306;28;19915;-63
2022/08/12 02:19:09;;;;;;;;;;;23.70;78.10;;;;;;5077761;28;19908;-63
2022/08/12 02:21:37;;;;;;;;;;;23.70;78.00;;;;;;5095604;28;20366;-63
2022/08/12 02:24:05;;;;;;;;;;;23.70;78.10;;;;;;5095527;28;20284;-63
2022/08/12 02:26:32;;;;;;;;;;;23.70;78.00;;;;;;5095801;28;19915;-63
2022/08/12 02:28:58;;;;;;;;;;;23.70;77.90;;;;;;5077692;28;19912;-63
2022/08/12 02:31:26;;;;;;;;;;;23.70;77.90;;;;;;5095689;28;19912;-63
2022/08/12 02:33:51;;;;;;;;;;;23.60;77.90;;;;;;5095315;28;19912;-63
2022/08/12 02:36:17;;;;;;;;;;;23.60;77.80;;;;;;5095413;28;20385;-63
2022/08/12 02:38:43;;;;;;;;;;;23.60;78.00;;;;;;5095369;28;19908;-63
2022/08/12 02:41:11;;;;;;;;;;;23.60;77.80;;;;;;5095573;28;19908;-63
2022/08/12 02:43:59;;;;;;;;;;;23.60;77.90;;;;;;5095533;28;19912;-63
2022/08/12 02:46:28;;;;;;;;;;;23.60;77.90;;;;;;5095860;28;19919;-63
2022/08/12 02:48:59;;;;;;;;;;;23.60;77.90;;;;;;5095333;28;19915;-63
2022/08/12 02:51:29;;;;;;;;;;;23.60;78.00;;;;;;5095244;28;19913;-63
2022/08/12 02:53:57;;;;;;;;;;;23.60;78.00;;;;;;5095321;28;20011;-63
2022/08/12 02:56:25;;;;;;;;;;;23.60;78.50;;;;;;5095198;28;19930;-63
2022/08/12 02:58:51;;;;;;;;;;;23.60;78.10;;;;;;5094926;28;19908;-63
2022/08/12 03:01:20;;;;;;;;;;;23.60;78.10;;;;;;5095391;28;20274;-63
2022/08/12 03:03:49;;;;;;;;;;;23.60;78.00;;;;;;5094553;28;20232;-63
2022/08/12 03:06:20;;;;;;;;;;;23.60;78.00;;;;;;5076931;28;20359;-63
2022/08/12 03:08:46;;;;;;;;;;;23.60;78.10;;;;;;5095057;28;19909;-63
2022/08/12 03:11:15;;;;;;;;;;;23.60;78.00;;;;;;5094797;28;20042;-63
2022/08/12 03:13:44;;;;;;;;;;;23.60;78.00;;;;;;5094021;28;19920;-63
2022/08/12 03:16:10;;;;;;;;;;;23.60;78.00;;;;;;5094857;28;19947;-63
2022/08/12 03:18:36;;;;;;;;;;;23.60;78.20;;;;;;5095247;28;20354;-63
2022/08/12 03:21:01;;;;;;;;;;;23.60;78.00;;;;;;5094570;28;19908;-63
2022/08/12 03:23:28;;;;;;;;;;;23.60;78.10;;;;;;5094846;28;20317;-63
2022/08/12 03:25:57;;;;;;;;;;;23.60;78.00;;;;;;5076564;28;19908;-63
2022/08/12 03:31:08;;;;;;;;;;;23.60;78.00;;;;;;5094324;28;19926;-63
2022/08/12 03:33:38;;;;;;;;;;;23.60;78.00;;;;;;5094118;28;19915;-63
2022/08/12 03:36:05;;;;;;;;;;;23.50;77.90;;;;;;5076226;28;20419;-63
2022/08/12 03:38:33;;;;;;;;;;;23.60;78.10;;;;;;5094793;28;19908;-63
2022/08/12 04:00:24;;;;;;;;;;;23.60;78.30;;;;;;5094106;28;19931;-63
2022/08/12 04:03:04;;;;;;;;;;;23.60;78.50;;;;;;5094341;28;20346;-63
2022/08/12 04:05:30;;;;;;;;;;;23.50;78.30;;;;;;5094009;28;19945;-63
2022/08/12 04:07:56;;;;;;;;;;;23.60;78.90;;;;;;5094170;28;19912;-63
2022/08/12 04:13:13;;;;;;;;;;;23.60;78.30;;;;;;5093781;28;19916;-63
2022/08/12 04:13:15;;;;;;;;;;;23.60;78.30;;;;;;5093663;28;19909;-63
2022/08/12 04:15:44;;;;;;;;;;;23.60;78.30;;;;;;5093709;28;19908;-63
2022/08/12 04:18:14;;;;;;;;;;;23.60;78.30;;;;;;5075837;28;19947;-63
2022/08/12 04:20:41;;;;;;;;;;;23.60;78.30;;;;;;5093928;28;20344;-63
2022/08/12 04:23:11;;;;;;;;;;;23.60;78.30;;;;;;5093532;28;19912;-63
2022/08/12 04:25:38;;;;;;;;;;;23.60;78.30;;;;;;5078979;28;20363;-63
2022/08/12 04:28:03;;;;;;;;;;;23.60;78.80;;;;;;5098094;28;19908;-63
2022/08/12 04:30:29;;;;;;;;;;;23.60;78.30;;;;;;5097953;28;19917;-63
2022/08/12 04:32:56;;;;;;;;;;;23.60;78.30;;;;;;5079868;28;19908;-63
2022/08/12 04:35:22;;;;;;;;;;;23.60;78.20;;;;;;5097910;28;19957;-63
2022/08/12 04:37:52;;;;;;;;;;;23.60;78.20;;;;;;5097565;28;19908;-63
2022/08/12 04:40:18;;;;;;;;;;;23.60;78.20;;;;;;5079620;28;19977;-63
2022/08/12 04:42:44;;;;;;;;;;;23.60;78.20;;;;;;5079431;28;19908;-63
2022/08/12 04:45:10;;;;;;;;;;;23.60;78.20;;;;;;5097578;28;20002;-63
2022/08/12 04:47:35;;;;;;;;;;;23.60;78.20;;;;;;5097415;28;19948;-63
2022/08/12 04:50:01;;;;;;;;;;;23.60;78.20;;;;;;5097811;28;19916;-63
2022/08/12 04:52:27;;;;;;;;;;;23.60;78.20;;;;;;5079403;28;19986;-63
2022/08/12 04:54:52;;;;;;;;;;;23.60;78.20;;;;;;5097122;28;20268;-63
2022/08/12 04:57:18;;;;;;;;;;;23.70;78.20;;;;;;5097048;28;19931;-63
2022/08/12 04:59:43;;;;;;;;;;;23.60;78.10;;;;;;5097312;28;19951;-63
2022/08/12 05:02:09;;;;;;;;;;;23.70;78.10;;;;;;5096971;28;19950;-63
2022/08/12 05:04:35;;;;;;;;;;;23.70;78.10;;;;;;5097047;28;20298;-63
2022/08/12 05:07:01;;;;;;;;;;;23.70;78.10;;;;;;5097121;28;19951;-63
2022/08/12 05:09:26;;;;;;;;;;;23.70;78.00;;;;;;5097148;28;19963;-63
2022/08/12 05:11:52;;;;;;;;;;;23.70;78.00;;;;;;5097057;28;19908;-63
2022/08/12 05:14:17;;;;;;;;;;;23.70;78.00;;;;;;5097038;28;19915;-63
2022/08/12 05:16:43;;;;;;;;;;;23.70;78.00;;;;;;5096780;28;19916;-63
2022/08/12 05:19:08;;;;;;;;;;;23.70;78.00;;;;;;5096389;28;20315;-63
2022/08/12 05:21:34;;;;;;;;;;;23.70;78.00;;;;;;5096589;28;19957;-63
2022/08/12 05:23:59;;;;;;;;;;;23.70;77.90;;;;;;5096906;28;19908;-63
2022/08/12 05:26:25;;;;;;;;;;;23.70;78.00;;;;;;5096709;28;20263;-63
2022/08/12 05:28:52;;;;;;;;;;;23.70;78.00;;;;;;5096890;28;19908;-63
2022/08/12 05:31:19;;;;;;;;;;;23.70;78.50;;;;;;5096853;28;19916;-63
2022/08/12 05:33:46;;;;;;;;;;;23.70;78.00;;;;;;5096295;28;20006;-63
2022/08/12 05:36:13;;;;;;;;;;;23.70;77.90;;;;;;5077860;28;19915;-63
2022/08/12 05:38:54;;;;;;;;;;;23.70;77.90;;;;;;5096032;28;20363;-63
2022/08/12 05:41:20;;;;;;;;;;;23.70;77.90;;;;;;5078322;28;20355;-63
2022/08/12 05:43:47;;;;;;;;;;;23.70;78.00;;;;;;5095955;28;20266;-63
2022/08/12 05:46:13;;;;;;;;;;;23.70;77.90;;;;;;5096406;28;20308;-64
2022/08/12 05:48:40;;;;;;;;;;;23.70;77.80;;;;;;5096194;28;19962;-63
2022/08/12 05:51:06;;;;;;;;;;;23.70;77.80;;;;;;5078147;28;19916;-63
2022/08/12 05:53:32;;;;;;;;;;;23.80;77.60;;;;;;5096230;28;19914;-63
2022/08/12 05:55:57;;;;;;;;;;;23.70;77.70;;;;;;5095667;28;19908;-64
2022/08/12 05:58:23;;;;;;;;;;;23.70;77.80;;;;;;5095713;28;20367;-64
2022/08/12 06:00:48;;;;;;;;;;;23.80;77.80;;;;;;5096186;28;19916;-64
2022/08/12 06:03:16;;;;;;;;;;;23.70;77.80;;;;;;5096017;28;19924;-64
2022/08/12 06:05:45;;;;;;;;;;;23.70;77.60;;;;;;5095982;28;20343;-64
2022/08/12 06:08:10;;;;;;;;;;;23.70;77.70;;;;;;5095721;28;19974;-64
2022/08/12 06:10:36;;;;;;;;;;;23.70;77.50;;;;;;5095831;28;19924;-64
2022/08/12 06:13:03;;;;;;;;;;;23.70;77.50;;;;;;5095672;28;19918;-65
2022/08/12 06:15:29;;;;;;;;;;;23.70;77.80;;;;;;5077680;28;19908;-64
2022/08/12 06:18:04;;;;;;;;;;;23.70;77.80;;;;;;5095785;28;19916;-64
2022/08/12 06:20:29;;;;;;;;;;;23.70;77.70;;;;;;5095455;28;20302;-65
2022/08/12 06:22:55;;;;;;;;;;;23.70;77.90;;;;;;5096034;28;19908;-64
2022/08/12 06:25:21;;;;;;;;;;;23.70;77.70;;;;;;5095584;28;19999;-64
2022/08/12 06:27:47;;;;;;;;;;;23.70;77.60;;;;;;5095277;28;19919;-64
2022/08/12 06:30:19;;;;;;;;;;;23.70;77.50;;;;;;5095279;28;19939;-64
2022/08/12 06:32:46;;;;;;;;;;;23.70;77.90;;;;;;5077501;28;20370;-64
2022/08/12 06:35:15;;;;;;;;;;;23.70;77.90;;;;;;5077269;28;19908;-64
2022/08/12 06:37:45;;;;;;;;;;;23.70;77.80;;;;;;5076824;28;20416;-64
2022/08/12 06:40:12;;;;;;;;;;;23.70;77.60;;;;;;5077099;28;19930;-63
2022/08/12 06:42:46;;;;;;;;;;;23.70;77.60;;;;;;5095188;28;20382;-64
2022/08/12 06:45:15;;;;;;;;;;;23.70;77.90;;;;;;5076997;28;19908;-64
2022/08/12 06:47:41;;;;;;;;;;;23.70;77.90;;;;;;5094188;28;19931;-64
2022/08/12 06:50:07;;;;;;;;;;;23.70;77.90;;;;;;5094466;28;20363;-64
2022/08/12 06:52:32;;;;;;;;;;;23.70;77.90;;;;;;5095053;28;19974;-64
2022/08/12 06:54:58;;;;;;;;;;;23.70;77.80;;;;;;5094636;28;19908;-64
2022/08/12 06:57:28;;;;;;;;;;;23.70;77.80;;;;;;5094898;28;19908;-64
2022/08/12 06:59:53;;;;;;;;;;;23.70;77.90;;;;;;5094914;28;19939;-64
2022/08/12 07:02:21;;;;;;;;;;;23.70;77.80;;;;;;5094598;28;19973;-64
2022/08/12 07:04:47;;;;;;;;;;;23.70;77.60;;;;;;5094323;28;20177;-64
2022/08/12 07:07:12;;;;;;;;;;;23.70;77.70;;;;;;5094602;28;19944;-64
2022/08/12 07:09:38;;;;;;;;;;;23.70;77.80;;;;;;5094471;28;19961;-64
2022/08/12 07:12:04;;;;;;;;;;;23.70;77.90;;;;;;5094689;28;19908;-63
2022/08/12 07:14:29;;;;;;;;;;;23.70;77.80;;;;;;5094263;28;19909;-63
2022/08/12 07:17:00;;;;;;;;;;;23.80;78.00;;;;;;5094037;28;20317;-63
2022/08/12 07:19:26;;;;;;;;;;;23.70;77.80;;;;;;5076442;28;20270;-63
2022/08/12 07:21:52;;;;;;;;;;;23.70;77.90;;;;;;5076342;28;19912;-63
2022/08/12 07:24:17;;;;;;;;;;;23.70;77.80;;;;;;5094351;28;19908;-64
2022/08/12 07:26:43;;;;;;;;;;;23.70;77.90;;;;;;5094039;28;20328;-65
2022/08/12 07:29:09;;;;;;;;;;;23.70;77.90;;;;;;5093920;28;19908;-64
2022/08/12 07:31:38;;;;;;;;;;;23.70;77.80;;;;;;5075763;28;20393;-64
2022/08/12 07:34:04;;;;;;;;;;;23.70;77.90;;;;;;5093948;28;19916;-64
2022/08/12 07:36:29;;;;;;;;;;;23.70;77.90;;;;;;5093763;28;20265;-65
2022/08/12 07:38:55;;;;;;;;;;;23.70;78.00;;;;;;5075951;28;19917;-65
2022/08/12 07:41:21;;;;;;;;;;;23.70;78.00;;;;;;5093762;28;19930;-65
2022/08/12 07:43:52;;;;;;;;;;;23.70;78.00;;;;;;5093888;28;19912;-65
2022/08/12 07:46:20;;;;;;;;;;;23.70;78.00;;;;;;5093606;28;19939;-64
2022/08/12 07:48:47;;;;;;;;;;;23.70;77.90;;;;;;5075525;28;19969;-64
2022/08/12 07:51:13;;;;;;;;;;;23.70;78.10;;;;;;5093932;28;19966;-63
2022/08/12 07:53:39;;;;;;;;;;;23.70;78.60;;;;;;5094349;28;19951;-64
2022/08/12 07:56:06;;;;;;;;;;;23.70;78.10;;;;;;5094132;28;19912;-64
2022/08/12 07:58:32;;;;;;;;;;;23.70;77.90;;;;;;5093751;28;20306;-65
2022/08/12 08:00:59;;;;;;;;;;;23.70;78.00;;;;;;5093809;28;19918;-65
2022/08/12 08:03:28;;;;;;;;;;;23.70;78.00;;;;;;5093464;28;19920;-65
2022/08/12 08:05:55;;;;;;;;;;;23.70;78.00;;;;;;5093955;28;19908;-63
2022/08/12 08:08:22;;;;;;;;;;;23.70;77.90;;;;;;5094235;28;19957;-63
2022/08/12 08:10:49;;;;;;;;;;;23.70;77.90;;;;;;5093593;28;20279;-62
2022/08/12 08:13:15;;;;;;;;;;;23.70;77.90;;;;;;5094069;28;19908;-63
2022/08/12 08:15:41;;;;;;;;;;;23.70;78.00;;;;;;5093486;28;19908;-64
2022/08/12 08:18:10;;;;;;;;;;;23.60;78.00;;;;;;5093974;28;19916;-64
2022/08/12 08:20:41;;;;;;;;;;;23.70;78.10;;;;;;5093427;28;20386;-64
2022/08/12 08:23:13;;;;;;;;;;;23.70;78.50;;;;;;5075631;28;19950;-64
2022/08/12 08:25:40;;;;;;;;;;;23.70;77.90;;;;;;5093702;28;19908;-64
2022/08/12 08:28:10;;;;;;;;;;;23.70;77.90;;;;;;5093439;28;19908;-63
2022/08/12 08:30:37;;;;;;;;;;;23.70;77.80;;;;;;5093519;28;19953;-63
2022/08/12 08:33:04;;;;;;;;;;;23.70;77.90;;;;;;5093469;28;20003;-64
2022/08/12 08:35:30;;;;;;;;;;;23.70;77.80;;;;;;5093731;28;19908;-64
2022/08/12 08:38:05;;;;;;;;;;;23.70;77.80;;;;;;5093787;28;20312;-63
2022/08/12 08:43:15;;;;;;;;;;;23.70;77.90;;;;;;5093482;28;19954;-64
2022/08/12 08:45:40;;;;;;;;;;;23.70;77.70;;;;;;5093301;28;19908;-64
2022/08/12 08:48:06;;;;;;;;;;;23.70;77.70;;;;;;5093246;28;19933;-63
2022/08/12 08:50:32;;;;;;;;;;;23.80;77.80;;;;;;5093361;28;20256;-63
2022/08/12 08:52:58;;;;;;;;;;;23.70;77.70;;;;;;5093421;28;20015;-64
2022/08/12 08:55:24;;;;;;;;;;;23.80;77.70;;;;;;5093012;28;20369;-64
2022/08/12 08:57:52;;;;;;;;;;;23.70;77.60;;;;;;5093251;28;20362;-64
2022/08/12 09:00:18;;;;;;;;;;;23.80;77.80;;;;;;5074979;28;19915;-64
2022/08/12 09:02:45;;;;;;;;;;;23.80;77.60;;;;;;5093122;28;20389;-64
2022/08/12 09:05:10;;;;;;;;;;;23.80;77.70;;;;;;5093381;28;19908;-64
2022/08/12 09:07:43;;;;;;;;;;;23.70;77.70;;;;;;5093328;28;19912;-64
2022/08/12 09:10:10;;;;;;;;;;;23.70;77.70;;;;;;5094347;28;19970;-64
2022/08/12 09:15:20;;;;;;;;;;;23.80;77.80;;;;;;5096725;28;19916;-64
2022/08/12 09:17:54;;;;;;;;;;;23.80;77.70;;;;;;5078887;28;20316;-64
2022/08/12 09:20:20;;;;;;;;;;;23.80;77.70;;;;;;5096579;28;19908;-64
2022/08/12 09:22:46;;;;;;;;;;;23.80;77.80;;;;;;5096500;28;19908;-64
2022/08/12 09:25:11;;;;;;;;;;;23.80;77.70;;;;;;5096538;28;19908;-64
2022/08/12 09:27:37;;;;;;;;;;;23.80;77.80;;;;;;5078123;28;19911;-64
2022/08/12 09:30:03;;;;;;;;;;;23.80;77.80;;;;;;5096901;28;19916;-63
2022/08/12 09:32:28;;;;;;;;;;;23.70;77.70;;;;;;5096168;28;19908;-64
2022/08/12 09:34:54;;;;;;;;;;;23.70;77.70;;;;;;5078354;28;19946;-64
2022/08/12 09:37:19;;;;;;;;;;;23.70;77.60;;;;;;5096565;28;20239;-64
2022/08/12 09:39:44;;;;;;;;;;;23.80;77.60;;;;;;5096267;28;19978;-64
2022/08/12 09:47:43;;;;;;;;;;;23.80;77.60;;;;;;5096154;28;19915;-64
2022/08/12 09:50:08;;;;;;;;;;;23.80;77.60;;;;;;5095970;28;20097;-64
2022/08/12 09:52:35;;;;;;;;;;;23.70;77.60;;;;;;5096064;28;19961;-64
2022/08/12 09:55:01;;;;;;;;;;;23.80;77.60;;;;;;5096364;28;19938;-64
2022/08/12 09:57:26;;;;;;;;;;;23.80;77.60;;;;;;5095885;28;20304;-64
2022/08/12 09:59:53;;;;;;;;;;;23.80;77.60;;;;;;5095815;28;19915;-64
2022/08/12 10:02:18;;;;;;;;;;;23.80;77.60;;;;;;5095473;28;19920;-64
2022/08/12 10:04:47;;;;;;;;;;;23.80;77.60;;;;;;5095516;28;20350;-64
2022/08/12 10:07:14;;;;;;;;;;;23.80;77.60;;;;;;5095866;28;19908;-64
2022/08/12 10:09:40;;;;;;;;;;;23.80;77.60;;;;;;5095349;28;20382;-64
2022/08/12 10:14:49;;;;;;;;;;;23.80;77.60;;;;;;5095885;28;20007;-64
2022/08/12 10:17:14;;;;;;;;;;;23.70;77.50;;;;;;5095256;28;19951;-64
2022/08/12 10:19:40;;;;;;;;;;;23.80;77.60;;;;;;5095006;28;19915;-64
2022/08/12 10:22:05;;;;;;;;;;;23.80;77.50;;;;;;5077168;28;19915;-65
2022/08/12 10:24:31;;;;;;;;;;;23.80;77.50;;;;;;5095453;28;20359;-64
2022/08/12 10:29:54;;;;;;;;;;;23.80;77.50;;;;;;5060984;28;19921;-64
2022/08/12 10:32:20;;;;;;;;;;;23.80;77.50;;;;;;5095373;28;20095;-64
2022/08/12 10:34:46;;;;;;;;;;;23.80;77.50;;;;;;5095600;28;19914;-64
2022/08/12 10:37:12;;;;;;;;;;;23.80;77.50;;;;;;5095086;28;19915;-64
2022/08/12 10:39:38;;;;;;;;;;;23.80;77.50;;;;;;5110918;28;19912;-64
2022/08/12 10:44:59;;;;;;;;;;;23.80;77.60;;;;;;5094682;28;20316;-64
2022/08/12 10:47:29;;;;;;;;;;;23.80;77.50;;;;;;5094831;28;19908;-64
2022/08/12 10:49:55;;;;;;;;;;;23.80;77.60;;;;;;5094655;28;20358;-64
2022/08/12 10:52:23;;;;;;;;;;;23.80;77.60;;;;;;5095478;28;19916;-64
2022/08/12 10:54:49;;;;;;;;;;;23.80;77.60;;;;;;5094736;28;19943;-64
2022/08/12 10:57:15;;;;;;;;;;;23.80;77.60;;;;;;5076595;28;19915;-64
2022/08/12 10:59:41;;;;;;;;;;;23.80;77.50;;;;;;5094708;28;19915;-64
2022/08/12 11:02:09;;;;;;;;;;;23.80;78.10;;;;;;5094550;28;19924;-64
2022/08/12 11:04:37;;;;;;;;;;;23.80;77.50;;;;;;5094286;28;20343;-64
2022/08/12 11:07:02;;;;;;;;;;;23.80;77.50;;;;;;5094217;28;20322;-64
2022/08/12 11:09:33;;;;;;;;;;;23.80;77.50;;;;;;5094857;28;19916;-64
2022/08/12 11:12:01;;;;;;;;;;;23.80;77.40;;;;;;5094519;28;19969;-64
2022/08/12 11:14:32;;;;;;;;;;;23.80;77.50;;;;;;5094596;28;19915;-64
2022/08/12 11:16:58;;;;;;;;;;;23.80;78.00;;;;;;5094750;28;19908;-64
2022/08/12 11:19:25;;;;;;;;;;;23.80;77.50;;;;;;5094210;28;19908;-63
2022/08/12 11:21:51;;;;;;;;;;;23.80;77.60;;;;;;5094358;28;19951;-64
2022/08/12 11:24:16;;;;;;;;;;;23.80;77.50;;;;;;5075603;28;19908;-63
2022/08/12 11:26:42;;;;;;;;;;;23.80;77.50;;;;;;5094174;28;19953;-64
2022/08/12 11:29:07;;;;;;;;;;;23.80;77.50;;;;;;5093988;28;19912;-64
2022/08/12 11:31:33;;;;;;;;;;;23.80;77.50;;;;;;5093918;28;19924;-64
2022/08/12 11:33:58;;;;;;;;;;;23.80;77.50;;;;;;5093692;28;20288;-63
2022/08/12 11:36:24;;;;;;;;;;;23.80;77.50;;;;;;5076091;28;19908;-64
2022/08/12 11:38:49;;;;;;;;;;;23.80;77.50;;;;;;5075879;28;20332;-63
2022/08/12 11:41:15;;;;;;;;;;;23.80;77.50;;;;;;5094119;28;20267;-64
2022/08/12 11:43:40;;;;;;;;;;;23.80;77.50;;;;;;5094029;28;20008;-64
2022/08/12 11:46:06;;;;;;;;;;;23.80;77.60;;;;;;5094549;28;20270;-64
2022/08/12 11:48:36;;;;;;;;;;;23.80;77.50;;;;;;5093887;28;20362;-64
2022/08/12 11:51:01;;;;;;;;;;;23.80;77.60;;;;;;5094352;28;19920;-64
2022/08/12 11:53:27;;;;;;;;;;;23.80;77.60;;;;;;5075484;28;20398;-64
2022/08/12 11:55:52;;;;;;;;;;;23.80;77.60;;;;;;5094019;28;19908;-64
2022/08/12 11:58:19;;;;;;;;;;;23.80;77.60;;;;;;5093657;28;19950;-64
2022/08/12 12:00:45;;;;;;;;;;;23.80;77.50;;;;;;5093838;28;19908;-64
2022/08/12 12:03:10;;;;;;;;;;;23.80;77.40;;;;;;5075472;28;19965;-63
2022/08/12 12:05:36;;;;;;;;;;;23.80;77.40;;;;;;5093652;28;19915;-64
2022/08/12 12:08:01;;;;;;;;;;;23.80;77.40;;;;;;5093427;28;19919;-64
2022/08/12 12:10:27;;;;;;;;;;;23.80;77.50;;;;;;5075133;28;20023;-64
2022/08/12 12:12:52;;;;;;;;;;;23.80;77.50;;;;;;5093263;28;19915;-64
2022/08/12 12:15:18;;;;;;;;;;;23.80;77.50;;;;;;5093316;28;19908;-64
2022/08/12 12:17:44;;;;;;;;;;;23.80;77.40;;;;;;5075361;28;20267;-64
2022/08/12 12:20:10;;;;;;;;;;;23.80;77.50;;;;;;5075484;28;19950;-64
2022/08/12 12:22:36;;;;;;;;;;;23.80;77.50;;;;;;5094101;28;20434;-63
2022/08/12 12:25:02;;;;;;;;;;;23.80;77.40;;;;;;5075421;28;20370;-64
2022/08/12 12:27:27;;;;;;;;;;;23.80;77.40;;;;;;5093456;28;19912;-64
2022/08/12 12:29:55;;;;;;;;;;;23.80;77.30;;;;;;5093384;28;20350;-64
2022/08/12 12:32:20;;;;;;;;;;;23.80;77.40;;;;;;5093552;28;19908;-64
2022/08/12 12:34:46;;;;;;;;;;;23.90;77.40;;;;;;5075430;28;19931;-64
2022/08/12 12:37:12;;;;;;;;;;;23.80;77.40;;;;;;5075380;28;19915;-64
2022/08/12 12:39:38;;;;;;;;;;;23.80;77.40;;;;;;5093496;28;19912;-64
2022/08/12 12:42:04;;;;;;;;;;;23.80;77.40;;;;;;5093664;28;19912;-63
2022/08/12 12:44:29;;;;;;;;;;;23.80;77.30;;;;;;5092904;28;19909;-63
2022/08/12 12:46:55;;;;;;;;;;;23.80;77.40;;;;;;5096723;28;19908;-64
2022/08/12 12:49:20;;;;;;;;;;;23.80;77.40;;;;;;5096975;28;19948;-63
2022/08/12 12:51:46;;;;;;;;;;;23.80;77.40;;;;;;5096928;28;19916;-64
2022/08/12 12:54:12;;;;;;;;;;;23.80;77.40;;;;;;5097241;28;19930;-64
2022/08/12 12:56:41;;;;;;;;;;;23.80;77.30;;;;;;5079035;28;19919;-64
2022/08/12 12:59:07;;;;;;;;;;;23.80;77.30;;;;;;5097010;28;19972;-64
2022/08/12 13:01:34;;;;;;;;;;;23.80;77.40;;;;;;5078818;28;19908;-64
2022/08/12 13:03:59;;;;;;;;;;;23.80;77.40;;;;;;5097097;28;19908;-64
2022/08/12 13:06:28;;;;;;;;;;;23.80;77.30;;;;;;5097470;28;19908;-64
2022/08/12 13:08:54;;;;;;;;;;;23.80;77.40;;;;;;5096870;28;19908;-64
2022/08/12 13:11:20;;;;;;;;;;;23.80;77.50;;;;;;5096173;28;20011;-64
2022/08/12 13:13:48;;;;;;;;;;;23.80;77.40;;;;;;5078251;28;19944;-64
2022/08/12 13:16:16;;;;;;;;;;;23.80;77.50;;;;;;5096046;28;19915;-64
2022/08/12 13:18:42;;;;;;;;;;;23.80;78.00;;;;;;5078491;28;19908;-64
2022/08/12 13:21:10;;;;;;;;;;;23.80;77.50;;;;;;5096737;28;20414;-64
2022/08/12 13:23:36;;;;;;;;;;;23.80;77.30;;;;;;5096872;28;19912;-64
2022/08/12 13:26:02;;;;;;;;;;;23.80;77.20;;;;;;5096418;28;19912;-64
2022/08/12 13:28:29;;;;;;;;;;;23.80;77.30;;;;;;5096411;28;20355;-64
2022/08/12 13:30:56;;;;;;;;;;;23.80;77.20;;;;;;5096598;28;19921;-64
2022/08/12 13:33:24;;;;;;;;;;;23.80;77.10;;;;;;5078165;28;19912;-64
2022/08/12 13:35:51;;;;;;;;;;;23.80;77.40;;;;;;5096098;28;19908;-64
2022/08/12 13:38:17;;;;;;;;;;;23.80;77.30;;;;;;5096173;28;19911;-64
2022/08/12 13:40:43;;;;;;;;;;;23.80;77.30;;;;;;5096434;28;19908;-64
2022/08/12 13:43:14;;;;;;;;;;;23.80;77.40;;;;;;5078372;28;20007;-64
2022/08/12 13:45:40;;;;;;;;;;;23.80;77.50;;;;;;5078085;28;20359;-64
2022/08/12 13:48:06;;;;;;;;;;;23.80;77.50;;;;;;5095844;28;19944;-64
2022/08/12 13:50:38;;;;;;;;;;;23.80;77.40;;;;;;5095967;28;19916;-64
2022/08/12 13:53:11;;;;;;;;;;;23.90;77.40;;;;;;5096092;28;19916;-64
2022/08/12 13:55:37;;;;;;;;;;;23.80;77.30;;;;;;5095678;28;20260;-63
2022/08/12 13:58:06;;;;;;;;;;;23.80;77.10;;;;;;5095503;28;19908;-64
2022/08/12 14:00:34;;;;;;;;;;;23.90;77.20;;;;;;5095857;28;19914;-64
2022/08/12 14:03:00;;;;;;;;;;;23.80;77.60;;;;;;5096052;28;19920;-64
2022/08/12 14:05:26;;;;;;;;;;;23.80;77.30;;;;;;5078155;28;20006;-64
2022/08/12 14:07:54;;;;;;;;;;;23.80;77.30;;;;;;5095970;28;19945;-64
2022/08/12 14:10:36;;;;;;;;;;;23.80;77.30;;;;;;5095899;28;19916;-64
2022/08/12 14:13:12;;;;;;;;;;;23.80;77.30;;;;;;5096018;28;19908;-64
2022/08/12 14:15:39;;;;;;;;;;;23.80;77.20;;;;;;5077789;28;20002;-64
2022/08/12 14:18:09;;;;;;;;;;;23.80;77.10;;;;;;5096021;28;20007;-65
2022/08/12 14:20:35;;;;;;;;;;;23.80;76.90;;;;;;5095463;28;20359;-64
2022/08/12 14:23:00;;;;;;;;;;;23.80;77.00;;;;;;5095414;28;19908;-64
2022/08/12 14:25:29;;;;;;;;;;;23.80;77.00;;;;;;5095686;28;19914;-64
2022/08/12 14:28:02;;;;;;;;;;;23.80;77.00;;;;;;5095359;28;19915;-64
2022/08/12 14:30:28;;;;;;;;;;;23.80;77.20;;;;;;5095478;28;20347;-64
2022/08/12 14:32:53;;;;;;;;;;;23.80;77.20;;;;;;5095003;28;20371;-64
2022/08/12 14:35:19;;;;;;;;;;;23.80;77.30;;;;;;5095354;28;19912;-64
2022/08/12 14:37:44;;;;;;;;;;;23.80;77.70;;;;;;5110684;28;19908;-64
2022/08/12 14:40:10;;;;;;;;;;;23.80;77.00;;;;;;5077267;28;19912;-65
2022/08/12 14:42:37;;;;;;;;;;;23.80;77.10;;;;;;5095059;28;20420;-65
2022/08/12 14:45:02;;;;;;;;;;;23.80;77.80;;;;;;5077161;28;20282;-65
2022/08/12 14:47:28;;;;;;;;;;;23.80;77.30;;;;;;5094985;28;19908;-65
2022/08/12 14:49:54;;;;;;;;;;;23.80;77.20;;;;;;5095029;28;19908;-65
2022/08/12 14:52:19;;;;;;;;;;;23.80;77.10;;;;;;5095147;28;19912;-65
2022/08/12 14:54:45;;;;;;;;;;;23.80;77.20;;;;;;5076846;28;19914;-65
2022/08/12 14:57:10;;;;;;;;;;;23.80;77.10;;;;;;5094638;28;20354;-64
2022/08/12 15:02:20;;;;;;;;;;;23.80;77.20;;;;;;5094796;28;19973;-64
2022/08/12 15:04:46;;;;;;;;;;;23.80;77.00;;;;;;5094851;28;19908;-64
2022/08/12 15:07:12;;;;;;;;;;;23.80;77.00;;;;;;5076304;28;20317;-65
2022/08/12 15:09:38;;;;;;;;;;;23.80;77.00;;;;;;5076021;28;20376;-64
2022/08/12 15:12:11;;;;;;;;;;;23.80;76.80;;;;;;5094367;28;19916;-64
2022/08/12 15:14:38;;;;;;;;;;;23.80;76.90;;;;;;5094651;28;19912;-64
2022/08/12 15:17:05;;;;;;;;;;;23.80;76.90;;;;;;5094194;28;19994;-65
2022/08/12 15:19:31;;;;;;;;;;;23.80;76.90;;;;;;5094599;28;20258;-64
2022/08/12 15:21:56;;;;;;;;;;;23.80;77.10;;;;;;5094066;28;19908;-64
2022/08/12 15:24:22;;;;;;;;;;;23.80;77.20;;;;;;5094326;28;19960;-64
2022/08/12 15:26:47;;;;;;;;;;;23.80;77.20;;;;;;5094236;28;19915;-64
2022/08/12 15:29:13;;;;;;;;;;;23.80;77.10;;;;;;5094362;28;19908;-65
2022/08/12 15:31:38;;;;;;;;;;;23.80;77.10;;;;;;5093904;28;19985;-64
2022/08/12 15:34:05;;;;;;;;;;;23.80;77.00;;;;;;5076136;28;19915;-65
2022/08/12 15:36:30;;;;;;;;;;;23.80;77.00;;;;;;5094140;28;19962;-64
2022/08/12 15:38:56;;;;;;;;;;;23.80;77.00;;;;;;5075801;28;19908;-64
2022/08/12 15:41:23;;;;;;;;;;;23.80;76.90;;;;;;5093676;28;19908;-63
2022/08/12 15:43:49;;;;;;;;;;;23.80;77.10;;;;;;5094020;28;19915;-64
2022/08/12 15:46:14;;;;;;;;;;;23.80;77.20;;;;;;5094074;28;19908;-64
2022/08/12 15:48:42;;;;;;;;;;;23.80;77.10;;;;;;5093686;28;19908;-64
2022/08/12 15:51:07;;;;;;;;;;;23.80;77.20;;;;;;5093637;28;19920;-65
2022/08/12 15:56:17;;;;;;;;;;;23.80;77.10;;;;;;5093559;28;19935;-65
2022/08/12 15:58:42;;;;;;;;;;;23.80;77.00;;;;;;5075844;28;20350;-64
2022/08/12 16:01:13;;;;;;;;;;;23.80;77.20;;;;;;5075738;28;20266;-65